sensor_id;sensor_type;location;lat;lon;timestamp;P1;durP1;ratioP1;P2;durP2;ratioP2
79566;SDS011;69030;48.126;7.816;2024-01-25T00:02:00;9.73;;;3.05;;
79566;SDS011;69030;48.126;7.816;2024-01-25T00:04:27;8.80;;;3.45;;
79566;SDS011;69030;48.126;7.816;2024-01-25T00:06:53;4.10;;;2.90;;
79566;SDS011;69030;48.126;7.816;2024-01-25T00:09:18;7.40;;;1.95;;
79566;SDS011;69030;48.126;7.816;2024-01-25T00:11:43;4.70;;;1.83;;
79566;SDS011;69030;48.126;7.816;2024-01-25T00:14:09;5.28;;;2.15;;
79566;SDS011;69030;48.126;7.816;2024-01-25T00:16:34;4.70;;;1.58;;
79566;SDS011;69030;48.126;7.816;2024-01-25T00:19:00;5.05;;;2.38;;
79566;SDS011;69030;48.126;7.816;2024-01-25T00:21:25;5.05;;;2.00;;
79566;SDS011;69030;48.126;7.816;2024-01-25T00:23:50;6.97;;;2.67;;
79566;SDS011;69030;48.126;7.816;2024-01-25T00:26:16;3.38;;;1.15;;
79566;SDS011;69030;48.126;7.816;2024-01-25T00:28:41;7.65;;;1.90;;
79566;SDS011;69030;48.126;7.816;2024-01-25T00:31:07;2.63;;;1.63;;
79566;SDS011;69030;48.126;7.816;2024-01-25T00:33:32;5.70;;;2.15;;
79566;SDS011;69030;48.126;7.816;2024-01-25T00:36:01;6.78;;;1.55;;
79566;SDS011;69030;48.126;7.816;2024-01-25T00:38:26;6.25;;;1.85;;
79566;SDS011;69030;48.126;7.816;2024-01-25T00:40:52;3.28;;;1.77;;
79566;SDS011;69030;48.126;7.816;2024-01-25T00:43:18;5.65;;;1.70;;
79566;SDS011;69030;48.126;7.816;2024-01-25T00:45:43;4.53;;;1.83;;
79566;SDS011;69030;48.126;7.816;2024-01-25T00:48:09;5.75;;;2.25;;
79566;SDS011;69030;48.126;7.816;2024-01-25T00:50:36;4.30;;;1.15;;
79566;SDS011;69030;48.126;7.816;2024-01-25T00:53:02;5.75;;;2.13;;
79566;SDS011;69030;48.126;7.816;2024-01-25T00:55:28;3.75;;;1.55;;
79566;SDS011;69030;48.126;7.816;2024-01-25T00:57:54;6.35;;;1.98;;
79566;SDS011;69030;48.126;7.816;2024-01-25T01:00:20;4.40;;;1.58;;
79566;SDS011;69030;48.126;7.816;2024-01-25T01:02:46;7.72;;;2.08;;
79566;SDS011;69030;48.126;7.816;2024-01-25T01:05:12;3.30;;;1.50;;
79566;SDS011;69030;48.126;7.816;2024-01-25T01:07:38;3.53;;;1.60;;
79566;SDS011;69030;48.126;7.816;2024-01-25T01:10:06;8.43;;;1.67;;
79566;SDS011;69030;48.126;7.816;2024-01-25T01:12:33;6.68;;;2.13;;
79566;SDS011;69030;48.126;7.816;2024-01-25T01:14:58;6.10;;;2.08;;
79566;SDS011;69030;48.126;7.816;2024-01-25T01:17:24;7.82;;;2.15;;
79566;SDS011;69030;48.126;7.816;2024-01-25T01:19:49;4.90;;;1.42;;
79566;SDS011;69030;48.126;7.816;2024-01-25T01:22:15;12.57;;;2.40;;
79566;SDS011;69030;48.126;7.816;2024-01-25T01:24:41;5.90;;;2.25;;
79566;SDS011;69030;48.126;7.816;2024-01-25T01:27:06;5.45;;;1.75;;
79566;SDS011;69030;48.126;7.816;2024-01-25T01:29:32;5.10;;;1.85;;
79566;SDS011;69030;48.126;7.816;2024-01-25T01:31:57;7.70;;;1.98;;
79566;SDS011;69030;48.126;7.816;2024-01-25T01:34:23;7.63;;;1.63;;
79566;SDS011;69030;48.126;7.816;2024-01-25T01:36:49;5.03;;;2.08;;
79566;SDS011;69030;48.126;7.816;2024-01-25T01:39:14;4.22;;;2.28;;
79566;SDS011;69030;48.126;7.816;2024-01-25T01:41:40;2.90;;;1.67;;
79566;SDS011;69030;48.126;7.816;2024-01-25T01:44:05;7.13;;;1.77;;
79566;SDS011;69030;48.126;7.816;2024-01-25T01:49:04;7.35;;;2.08;;
79566;SDS011;69030;48.126;7.816;2024-01-25T01:51:31;4.80;;;2.17;;
79566;SDS011;69030;48.126;7.816;2024-01-25T01:53:57;8.80;;;1.77;;
79566;SDS011;69030;48.126;7.816;2024-01-25T01:56:26;6.88;;;1.48;;
79566;SDS011;69030;48.126;7.816;2024-01-25T01:58:53;4.20;;;0.95;;
79566;SDS011;69030;48.126;7.816;2024-01-25T02:01:21;8.02;;;1.60;;
79566;SDS011;69030;48.126;7.816;2024-01-25T02:03:46;6.07;;;2.47;;
79566;SDS011;69030;48.126;7.816;2024-01-25T02:06:12;4.35;;;1.15;;
79566;SDS011;69030;48.126;7.816;2024-01-25T02:08:37;6.55;;;1.50;;
79566;SDS011;69030;48.126;7.816;2024-01-25T02:11:03;6.30;;;1.98;;
79566;SDS011;69030;48.126;7.816;2024-01-25T02:13:29;7.82;;;1.70;;
79566;SDS011;69030;48.126;7.816;2024-01-25T02:15:54;6.47;;;2.13;;
79566;SDS011;69030;48.126;7.816;2024-01-25T02:18:20;7.15;;;2.15;;
79566;SDS011;69030;48.126;7.816;2024-01-25T02:20:45;7.80;;;2.03;;
79566;SDS011;69030;48.126;7.816;2024-01-25T02:23:11;3.85;;;1.85;;
79566;SDS011;69030;48.126;7.816;2024-01-25T02:25:36;6.55;;;2.40;;
79566;SDS011;69030;48.126;7.816;2024-01-25T02:28:02;8.00;;;3.47;;
79566;SDS011;69030;48.126;7.816;2024-01-25T02:30:27;4.63;;;1.17;;
79566;SDS011;69030;48.126;7.816;2024-01-25T02:32:55;4.75;;;2.20;;
79566;SDS011;69030;48.126;7.816;2024-01-25T02:35:21;5.35;;;1.92;;
79566;SDS011;69030;48.126;7.816;2024-01-25T02:37:46;10.00;;;1.80;;
79566;SDS011;69030;48.126;7.816;2024-01-25T02:40:12;4.80;;;1.40;;
79566;SDS011;69030;48.126;7.816;2024-01-25T02:42:38;5.70;;;2.35;;
79566;SDS011;69030;48.126;7.816;2024-01-25T02:45:04;8.80;;;1.60;;
79566;SDS011;69030;48.126;7.816;2024-01-25T02:47:29;8.10;;;1.73;;
79566;SDS011;69030;48.126;7.816;2024-01-25T02:49:55;5.25;;;1.23;;
79566;SDS011;69030;48.126;7.816;2024-01-25T02:52:20;5.68;;;1.40;;
79566;SDS011;69030;48.126;7.816;2024-01-25T02:54:45;3.63;;;1.52;;
79566;SDS011;69030;48.126;7.816;2024-01-25T02:57:11;5.50;;;1.20;;
79566;SDS011;69030;48.126;7.816;2024-01-25T02:59:36;2.17;;;1.02;;
79566;SDS011;69030;48.126;7.816;2024-01-25T03:02:02;4.07;;;1.15;;
79566;SDS011;69030;48.126;7.816;2024-01-25T03:04:27;5.10;;;1.55;;
79566;SDS011;69030;48.126;7.816;2024-01-25T03:06:53;5.53;;;1.83;;
79566;SDS011;69030;48.126;7.816;2024-01-25T03:09:18;3.67;;;1.25;;
79566;SDS011;69030;48.126;7.816;2024-01-25T03:11:46;6.68;;;2.10;;
79566;SDS011;69030;48.126;7.816;2024-01-25T03:14:11;3.80;;;0.95;;
79566;SDS011;69030;48.126;7.816;2024-01-25T03:16:37;7.55;;;1.33;;
79566;SDS011;69030;48.126;7.816;2024-01-25T03:19:03;6.22;;;1.35;;
79566;SDS011;69030;48.126;7.816;2024-01-25T03:21:28;5.40;;;1.48;;
79566;SDS011;69030;48.126;7.816;2024-01-25T03:23:54;2.90;;;1.17;;
79566;SDS011;69030;48.126;7.816;2024-01-25T03:26:20;4.30;;;1.13;;
79566;SDS011;69030;48.126;7.816;2024-01-25T03:28:45;5.40;;;0.68;;
79566;SDS011;69030;48.126;7.816;2024-01-25T03:31:10;3.92;;;1.20;;
79566;SDS011;69030;48.126;7.816;2024-01-25T03:33:36;3.35;;;0.55;;
79566;SDS011;69030;48.126;7.816;2024-01-25T03:36:05;4.07;;;0.85;;
79566;SDS011;69030;48.126;7.816;2024-01-25T03:38:31;2.42;;;0.63;;
79566;SDS011;69030;48.126;7.816;2024-01-25T03:40:57;4.13;;;0.52;;
79566;SDS011;69030;48.126;7.816;2024-01-25T03:43:27;2.13;;;0.57;;
79566;SDS011;69030;48.126;7.816;2024-01-25T03:45:52;2.95;;;0.95;;
79566;SDS011;69030;48.126;7.816;2024-01-25T03:48:18;2.40;;;0.65;;
79566;SDS011;69030;48.126;7.816;2024-01-25T03:50:44;2.80;;;0.88;;
79566;SDS011;69030;48.126;7.816;2024-01-25T03:53:09;2.35;;;0.52;;
79566;SDS011;69030;48.126;7.816;2024-01-25T03:55:35;6.43;;;0.82;;
79566;SDS011;69030;48.126;7.816;2024-01-25T03:58:00;1.33;;;0.40;;
79566;SDS011;69030;48.126;7.816;2024-01-25T04:00:26;2.17;;;0.32;;
79566;SDS011;69030;48.126;7.816;2024-01-25T04:02:51;1.77;;;0.25;;
79566;SDS011;69030;48.126;7.816;2024-01-25T04:05:17;2.10;;;0.70;;
79566;SDS011;69030;48.126;7.816;2024-01-25T04:07:43;4.13;;;0.70;;
79566;SDS011;69030;48.126;7.816;2024-01-25T04:10:09;3.83;;;0.75;;
79566;SDS011;69030;48.126;7.816;2024-01-25T04:12:34;3.03;;;0.63;;
79566;SDS011;69030;48.126;7.816;2024-01-25T04:15:00;4.63;;;1.15;;
79566;SDS011;69030;48.126;7.816;2024-01-25T04:17:25;3.25;;;0.90;;
79566;SDS011;69030;48.126;7.816;2024-01-25T04:19:51;1.27;;;0.50;;
79566;SDS011;69030;48.126;7.816;2024-01-25T04:22:16;5.18;;;0.32;;
79566;SDS011;69030;48.126;7.816;2024-01-25T04:24:42;4.90;;;1.15;;
79566;SDS011;69030;48.126;7.816;2024-01-25T04:27:08;1.95;;;0.30;;
79566;SDS011;69030;48.126;7.816;2024-01-25T04:29:34;4.05;;;1.10;;
79566;SDS011;69030;48.126;7.816;2024-01-25T04:32:03;1.10;;;0.52;;
79566;SDS011;69030;48.126;7.816;2024-01-25T04:34:32;2.47;;;0.60;;
79566;SDS011;69030;48.126;7.816;2024-01-25T04:37:01;7.57;;;0.55;;
79566;SDS011;69030;48.126;7.816;2024-01-25T04:39:26;3.65;;;0.30;;
79566;SDS011;69030;48.126;7.816;2024-01-25T04:41:52;5.82;;;0.98;;
79566;SDS011;69030;48.126;7.816;2024-01-25T04:44:17;3.15;;;0.45;;
79566;SDS011;69030;48.126;7.816;2024-01-25T04:46:43;2.50;;;0.32;;
79566;SDS011;69030;48.126;7.816;2024-01-25T04:49:08;5.05;;;0.50;;
79566;SDS011;69030;48.126;7.816;2024-01-25T04:51:34;2.40;;;0.52;;
79566;SDS011;69030;48.126;7.816;2024-01-25T04:54:00;2.03;;;0.63;;
79566;SDS011;69030;48.126;7.816;2024-01-25T04:56:25;3.13;;;0.45;;
79566;SDS011;69030;48.126;7.816;2024-01-25T04:58:51;5.15;;;1.67;;
79566;SDS011;69030;48.126;7.816;2024-01-25T05:01:16;1.88;;;0.60;;
79566;SDS011;69030;48.126;7.816;2024-01-25T05:03:42;3.47;;;0.75;;
79566;SDS011;69030;48.126;7.816;2024-01-25T05:06:07;1.30;;;0.57;;
79566;SDS011;69030;48.126;7.816;2024-01-25T05:08:32;1.20;;;0.25;;
79566;SDS011;69030;48.126;7.816;2024-01-25T05:10:58;3.97;;;0.52;;
79566;SDS011;69030;48.126;7.816;2024-01-25T05:13:23;1.58;;;0.32;;
79566;SDS011;69030;48.126;7.816;2024-01-25T05:15:49;4.13;;;1.02;;
79566;SDS011;69030;48.126;7.816;2024-01-25T05:18:14;5.50;;;1.42;;
79566;SDS011;69030;48.126;7.816;2024-01-25T05:20:40;3.58;;;2.40;;
79566;SDS011;69030;48.126;7.816;2024-01-25T05:23:05;2.92;;;0.52;;
79566;SDS011;69030;48.126;7.816;2024-01-25T05:25:31;4.15;;;0.55;;
79566;SDS011;69030;48.126;7.816;2024-01-25T05:27:57;3.17;;;1.08;;
79566;SDS011;69030;48.126;7.816;2024-01-25T05:30:23;4.97;;;1.60;;
79566;SDS011;69030;48.126;7.816;2024-01-25T05:32:49;2.45;;;0.68;;
79566;SDS011;69030;48.126;7.816;2024-01-25T05:35:19;4.00;;;1.42;;
79566;SDS011;69030;48.126;7.816;2024-01-25T05:37:46;3.33;;;1.33;;
79566;SDS011;69030;48.126;7.816;2024-01-25T05:40:11;4.32;;;1.33;;
79566;SDS011;69030;48.126;7.816;2024-01-25T05:42:38;3.17;;;0.55;;
79566;SDS011;69030;48.126;7.816;2024-01-25T05:45:04;8.65;;;1.20;;
79566;SDS011;69030;48.126;7.816;2024-01-25T05:47:30;3.72;;;0.68;;
79566;SDS011;69030;48.126;7.816;2024-01-25T05:49:56;2.88;;;0.73;;
79566;SDS011;69030;48.126;7.816;2024-01-25T05:52:22;2.13;;;1.02;;
79566;SDS011;69030;48.126;7.816;2024-01-25T05:54:49;4.70;;;0.80;;
79566;SDS011;69030;48.126;7.816;2024-01-25T05:57:14;3.70;;;0.65;;
79566;SDS011;69030;48.126;7.816;2024-01-25T05:59:40;4.38;;;0.65;;
79566;SDS011;69030;48.126;7.816;2024-01-25T06:02:05;2.90;;;0.55;;
79566;SDS011;69030;48.126;7.816;2024-01-25T06:04:32;2.25;;;0.50;;
79566;SDS011;69030;48.126;7.816;2024-01-25T06:06:58;3.38;;;1.70;;
79566;SDS011;69030;48.126;7.816;2024-01-25T06:09:23;4.63;;;1.55;;
79566;SDS011;69030;48.126;7.816;2024-01-25T06:11:52;7.25;;;1.65;;
79566;SDS011;69030;48.126;7.816;2024-01-25T06:14:18;5.07;;;1.48;;
79566;SDS011;69030;48.126;7.816;2024-01-25T06:16:44;3.97;;;1.23;;
79566;SDS011;69030;48.126;7.816;2024-01-25T06:19:14;5.57;;;1.13;;
79566;SDS011;69030;48.126;7.816;2024-01-25T06:21:39;5.07;;;1.70;;
79566;SDS011;69030;48.126;7.816;2024-01-25T06:24:04;3.78;;;1.10;;
79566;SDS011;69030;48.126;7.816;2024-01-25T06:26:30;6.95;;;1.48;;
79566;SDS011;69030;48.126;7.816;2024-01-25T06:28:56;8.07;;;1.80;;
79566;SDS011;69030;48.126;7.816;2024-01-25T06:31:22;3.00;;;1.02;;
79566;SDS011;69030;48.126;7.816;2024-01-25T06:33:48;3.10;;;1.08;;
79566;SDS011;69030;48.126;7.816;2024-01-25T06:36:15;3.72;;;1.38;;
79566;SDS011;69030;48.126;7.816;2024-01-25T06:38:49;4.05;;;1.23;;
79566;SDS011;69030;48.126;7.816;2024-01-25T06:41:15;5.63;;;1.35;;
79566;SDS011;69030;48.126;7.816;2024-01-25T06:43:42;4.35;;;1.08;;
79566;SDS011;69030;48.126;7.816;2024-01-25T06:46:10;4.68;;;2.10;;
79566;SDS011;69030;48.126;7.816;2024-01-25T06:48:35;6.43;;;2.10;;
79566;SDS011;69030;48.126;7.816;2024-01-25T06:51:01;4.85;;;2.53;;
79566;SDS011;69030;48.126;7.816;2024-01-25T06:53:27;4.68;;;2.60;;
79566;SDS011;69030;48.126;7.816;2024-01-25T06:55:53;4.68;;;2.22;;
79566;SDS011;69030;48.126;7.816;2024-01-25T06:58:18;6.80;;;1.73;;
79566;SDS011;69030;48.126;7.816;2024-01-25T07:00:43;4.43;;;1.58;;
79566;SDS011;69030;48.126;7.816;2024-01-25T07:03:12;3.20;;;1.10;;
79566;SDS011;69030;48.126;7.816;2024-01-25T07:05:40;5.00;;;1.42;;
79566;SDS011;69030;48.126;7.816;2024-01-25T07:08:06;3.33;;;0.93;;
79566;SDS011;69030;48.126;7.816;2024-01-25T07:10:34;3.33;;;1.15;;
79566;SDS011;69030;48.126;7.816;2024-01-25T07:13:00;6.32;;;1.55;;
79566;SDS011;69030;48.126;7.816;2024-01-25T07:15:25;3.60;;;0.90;;
79566;SDS011;69030;48.126;7.816;2024-01-25T07:17:51;3.33;;;1.33;;
79566;SDS011;69030;48.126;7.816;2024-01-25T07:20:16;7.28;;;1.35;;
79566;SDS011;69030;48.126;7.816;2024-01-25T07:22:41;7.13;;;2.17;;
79566;SDS011;69030;48.126;7.816;2024-01-25T07:25:07;4.55;;;1.85;;
79566;SDS011;69030;48.126;7.816;2024-01-25T07:27:33;8.05;;;1.83;;
79566;SDS011;69030;48.126;7.816;2024-01-25T07:29:58;6.65;;;2.38;;
79566;SDS011;69030;48.126;7.816;2024-01-25T07:32:24;5.00;;;1.13;;
79566;SDS011;69030;48.126;7.816;2024-01-25T07:34:50;2.97;;;1.20;;
79566;SDS011;69030;48.126;7.816;2024-01-25T07:37:18;3.83;;;1.10;;
79566;SDS011;69030;48.126;7.816;2024-01-25T07:39:44;6.80;;;1.75;;
79566;SDS011;69030;48.126;7.816;2024-01-25T07:42:10;8.82;;;3.08;;
79566;SDS011;69030;48.126;7.816;2024-01-25T07:44:36;14.95;;;4.90;;
79566;SDS011;69030;48.126;7.816;2024-01-25T07:47:02;12.57;;;5.50;;
79566;SDS011;69030;48.126;7.816;2024-01-25T07:49:27;11.73;;;5.20;;
79566;SDS011;69030;48.126;7.816;2024-01-25T07:51:54;12.80;;;6.20;;
79566;SDS011;69030;48.126;7.816;2024-01-25T07:54:21;10.13;;;5.43;;
79566;SDS011;69030;48.126;7.816;2024-01-25T07:56:47;11.25;;;3.90;;
79566;SDS011;69030;48.126;7.816;2024-01-25T07:59:12;5.65;;;2.45;;
79566;SDS011;69030;48.126;7.816;2024-01-25T08:01:38;4.18;;;1.92;;
79566;SDS011;69030;48.126;7.816;2024-01-25T08:04:03;2.83;;;1.85;;
79566;SDS011;69030;48.126;7.816;2024-01-25T08:06:29;5.15;;;1.50;;
79566;SDS011;69030;48.126;7.816;2024-01-25T08:08:54;3.78;;;1.77;;
79566;SDS011;69030;48.126;7.816;2024-01-25T08:11:20;3.97;;;1.55;;
79566;SDS011;69030;48.126;7.816;2024-01-25T08:13:46;4.47;;;1.70;;
79566;SDS011;69030;48.126;7.816;2024-01-25T08:16:13;9.80;;;3.25;;
79566;SDS011;69030;48.126;7.816;2024-01-25T08:18:39;10.57;;;5.38;;
79566;SDS011;69030;48.126;7.816;2024-01-25T08:21:05;4.35;;;3.03;;
79566;SDS011;69030;48.126;7.816;2024-01-25T08:23:31;7.28;;;3.72;;
79566;SDS011;69030;48.126;7.816;2024-01-25T08:25:57;4.03;;;2.42;;
79566;SDS011;69030;48.126;7.816;2024-01-25T08:28:22;6.18;;;2.50;;
79566;SDS011;69030;48.126;7.816;2024-01-25T08:30:47;4.30;;;2.20;;
79566;SDS011;69030;48.126;7.816;2024-01-25T08:33:13;4.70;;;2.03;;
79566;SDS011;69030;48.126;7.816;2024-01-25T08:35:38;6.00;;;2.63;;
79566;SDS011;69030;48.126;7.816;2024-01-25T08:38:05;4.80;;;3.25;;
79566;SDS011;69030;48.126;7.816;2024-01-25T08:40:32;5.07;;;2.53;;
79566;SDS011;69030;48.126;7.816;2024-01-25T08:42:57;6.30;;;3.75;;
79566;SDS011;69030;48.126;7.816;2024-01-25T08:45:23;9.73;;;3.88;;
79566;SDS011;69030;48.126;7.816;2024-01-25T08:47:48;5.75;;;3.83;;
79566;SDS011;69030;48.126;7.816;2024-01-25T08:50:14;6.50;;;2.20;;
79566;SDS011;69030;48.126;7.816;2024-01-25T08:52:40;6.28;;;3.00;;
79566;SDS011;69030;48.126;7.816;2024-01-25T08:55:06;7.32;;;2.55;;
79566;SDS011;69030;48.126;7.816;2024-01-25T08:57:32;5.22;;;2.58;;
79566;SDS011;69030;48.126;7.816;2024-01-25T08:59:58;3.20;;;2.08;;
79566;SDS011;69030;48.126;7.816;2024-01-25T09:02:25;7.13;;;2.42;;
79566;SDS011;69030;48.126;7.816;2024-01-25T09:04:52;5.00;;;2.88;;
79566;SDS011;69030;48.126;7.816;2024-01-25T09:07:19;6.15;;;3.33;;
79566;SDS011;69030;48.126;7.816;2024-01-25T09:09:44;7.20;;;3.22;;
79566;SDS011;69030;48.126;7.816;2024-01-25T09:12:10;7.22;;;3.92;;
79566;SDS011;69030;48.126;7.816;2024-01-25T09:14:37;7.38;;;3.05;;
79566;SDS011;69030;48.126;7.816;2024-01-25T09:17:03;9.43;;;3.55;;
79566;SDS011;69030;48.126;7.816;2024-01-25T09:19:29;5.47;;;2.50;;
79566;SDS011;69030;48.126;7.816;2024-01-25T09:21:55;4.60;;;1.73;;
79566;SDS011;69030;48.126;7.816;2024-01-25T09:24:23;3.97;;;2.05;;
79566;SDS011;69030;48.126;7.816;2024-01-25T09:26:48;4.97;;;1.85;;
79566;SDS011;69030;48.126;7.816;2024-01-25T09:29:14;5.47;;;1.55;;
79566;SDS011;69030;48.126;7.816;2024-01-25T09:31:39;7.57;;;2.33;;
79566;SDS011;69030;48.126;7.816;2024-01-25T09:34:05;8.57;;;4.20;;
79566;SDS011;69030;48.126;7.816;2024-01-25T09:36:31;10.20;;;5.15;;
79566;SDS011;69030;48.126;7.816;2024-01-25T09:38:57;6.85;;;1.73;;
79566;SDS011;69030;48.126;7.816;2024-01-25T09:41:22;6.88;;;1.70;;
79566;SDS011;69030;48.126;7.816;2024-01-25T09:43:48;3.15;;;1.88;;
79566;SDS011;69030;48.126;7.816;2024-01-25T09:46:13;3.97;;;1.83;;
79566;SDS011;69030;48.126;7.816;2024-01-25T09:48:40;9.48;;;2.78;;
79566;SDS011;69030;48.126;7.816;2024-01-25T09:51:08;3.97;;;1.95;;
79566;SDS011;69030;48.126;7.816;2024-01-25T09:53:34;4.68;;;2.20;;
79566;SDS011;69030;48.126;7.816;2024-01-25T09:56:03;3.67;;;2.00;;
79566;SDS011;69030;48.126;7.816;2024-01-25T09:58:41;4.25;;;2.17;;
79566;SDS011;69030;48.126;7.816;2024-01-25T10:01:10;3.40;;;1.95;;
79566;SDS011;69030;48.126;7.816;2024-01-25T10:03:37;6.88;;;2.13;;
79566;SDS011;69030;48.126;7.816;2024-01-25T10:06:10;5.72;;;3.03;;
79566;SDS011;69030;48.126;7.816;2024-01-25T10:08:36;4.47;;;1.00;;
79566;SDS011;69030;48.126;7.816;2024-01-25T10:11:03;2.55;;;1.17;;
79566;SDS011;69030;48.126;7.816;2024-01-25T10:13:28;1.38;;;0.47;;
79566;SDS011;69030;48.126;7.816;2024-01-25T10:15:54;1.60;;;0.93;;
79566;SDS011;69030;48.126;7.816;2024-01-25T10:18:22;2.22;;;1.77;;
79566;SDS011;69030;48.126;7.816;2024-01-25T10:20:47;3.40;;;1.85;;
79566;SDS011;69030;48.126;7.816;2024-01-25T10:23:13;3.75;;;1.88;;
79566;SDS011;69030;48.126;7.816;2024-01-25T10:25:39;3.28;;;0.63;;
79566;SDS011;69030;48.126;7.816;2024-01-25T10:28:05;3.30;;;0.63;;
79566;SDS011;69030;48.126;7.816;2024-01-25T10:30:32;2.38;;;1.45;;
79566;SDS011;69030;48.126;7.816;2024-01-25T10:33:01;3.20;;;1.58;;
79566;SDS011;69030;48.126;7.816;2024-01-25T10:35:27;3.10;;;0.75;;
79566;SDS011;69030;48.126;7.816;2024-01-25T10:37:54;1.08;;;0.93;;
79566;SDS011;69030;48.126;7.816;2024-01-25T10:40:21;2.33;;;0.82;;
79566;SDS011;69030;48.126;7.816;2024-01-25T10:42:46;1.15;;;0.55;;
79566;SDS011;69030;48.126;7.816;2024-01-25T10:45:12;1.65;;;0.65;;
79566;SDS011;69030;48.126;7.816;2024-01-25T10:47:38;0.70;;;0.65;;
79566;SDS011;69030;48.126;7.816;2024-01-25T10:50:06;3.20;;;0.68;;
79566;SDS011;69030;48.126;7.816;2024-01-25T10:52:34;1.80;;;0.88;;
79566;SDS011;69030;48.126;7.816;2024-01-25T10:55:00;3.83;;;0.50;;
79566;SDS011;69030;48.126;7.816;2024-01-25T10:57:26;2.20;;;1.58;;
79566;SDS011;69030;48.126;7.816;2024-01-25T10:59:52;1.10;;;0.35;;
79566;SDS011;69030;48.126;7.816;2024-01-25T11:02:20;0.80;;;0.77;;
79566;SDS011;69030;48.126;7.816;2024-01-25T11:04:53;1.55;;;1.10;;
79566;SDS011;69030;48.126;7.816;2024-01-25T11:07:20;2.05;;;0.43;;
79566;SDS011;69030;48.126;7.816;2024-01-25T11:09:45;3.47;;;0.65;;
79566;SDS011;69030;48.126;7.816;2024-01-25T11:12:13;1.92;;;0.43;;
79566;SDS011;69030;48.126;7.816;2024-01-25T11:14:41;1.80;;;0.35;;
79566;SDS011;69030;48.126;7.816;2024-01-25T11:17:19;1.17;;;0.43;;
79566;SDS011;69030;48.126;7.816;2024-01-25T11:19:46;1.27;;;0.82;;
79566;SDS011;69030;48.126;7.816;2024-01-25T11:22:13;0.70;;;0.52;;
79566;SDS011;69030;48.126;7.816;2024-01-25T11:24:42;4.55;;;0.75;;
79566;SDS011;69030;48.126;7.816;2024-01-25T11:27:08;0.70;;;0.52;;
79566;SDS011;69030;48.126;7.816;2024-01-25T11:29:35;0.38;;;0.28;;
79566;SDS011;69030;48.126;7.816;2024-01-25T11:32:00;0.82;;;0.32;;
79566;SDS011;69030;48.126;7.816;2024-01-25T11:34:25;0.32;;;0.15;;
79566;SDS011;69030;48.126;7.816;2024-01-25T11:36:51;0.70;;;0.43;;
79566;SDS011;69030;48.126;7.816;2024-01-25T11:39:16;1.67;;;1.23;;
79566;SDS011;69030;48.126;7.816;2024-01-25T11:41:43;3.78;;;0.47;;
79566;SDS011;69030;48.126;7.816;2024-01-25T11:44:09;3.00;;;0.35;;
79566;SDS011;69030;48.126;7.816;2024-01-25T11:46:36;1.48;;;1.05;;
79566;SDS011;69030;48.126;7.816;2024-01-25T11:49:01;0.68;;;0.35;;
79566;SDS011;69030;48.126;7.816;2024-01-25T11:51:27;1.85;;;0.93;;
79566;SDS011;69030;48.126;7.816;2024-01-25T11:53:53;10.30;;;3.53;;
79566;SDS011;69030;48.126;7.816;2024-01-25T11:56:23;4.13;;;1.58;;
79566;SDS011;69030;48.126;7.816;2024-01-25T11:58:51;4.28;;;2.90;;
79566;SDS011;69030;48.126;7.816;2024-01-25T12:01:17;3.20;;;0.90;;
79566;SDS011;69030;48.126;7.816;2024-01-25T12:03:44;3.00;;;1.10;;
79566;SDS011;69030;48.126;7.816;2024-01-25T12:06:10;1.52;;;0.68;;
79566;SDS011;69030;48.126;7.816;2024-01-25T12:08:37;1.63;;;1.00;;
79566;SDS011;69030;48.126;7.816;2024-01-25T12:11:04;2.08;;;0.82;;
79566;SDS011;69030;48.126;7.816;2024-01-25T12:13:33;5.45;;;2.50;;
79566;SDS011;69030;48.126;7.816;2024-01-25T12:16:06;5.35;;;1.98;;
79566;SDS011;69030;48.126;7.816;2024-01-25T12:18:32;7.72;;;2.38;;
79566;SDS011;69030;48.126;7.816;2024-01-25T12:21:04;10.65;;;4.40;;
79566;SDS011;69030;48.126;7.816;2024-01-25T12:23:33;12.80;;;4.07;;
79566;SDS011;69030;48.126;7.816;2024-01-25T12:26:00;1.05;;;0.40;;
79566;SDS011;69030;48.126;7.816;2024-01-25T12:28:27;3.10;;;1.05;;
79566;SDS011;69030;48.126;7.816;2024-01-25T12:30:54;6.88;;;1.92;;
79566;SDS011;69030;48.126;7.816;2024-01-25T12:33:20;1.63;;;0.57;;
79566;SDS011;69030;48.126;7.816;2024-01-25T12:35:45;1.02;;;0.55;;
79566;SDS011;69030;48.126;7.816;2024-01-25T12:38:11;1.60;;;0.45;;
79566;SDS011;69030;48.126;7.816;2024-01-25T12:40:36;1.23;;;0.40;;
79566;SDS011;69030;48.126;7.816;2024-01-25T12:43:02;5.15;;;2.30;;
79566;SDS011;69030;48.126;7.816;2024-01-25T12:45:28;4.03;;;1.73;;
79566;SDS011;69030;48.126;7.816;2024-01-25T12:47:55;2.78;;;1.08;;
79566;SDS011;69030;48.126;7.816;2024-01-25T12:50:21;0.80;;;0.80;;
79566;SDS011;69030;48.126;7.816;2024-01-25T12:52:46;0.82;;;0.32;;
79566;SDS011;69030;48.126;7.816;2024-01-25T12:55:12;1.52;;;0.35;;
79566;SDS011;69030;48.126;7.816;2024-01-25T12:57:37;0.98;;;0.43;;
79566;SDS011;69030;48.126;7.816;2024-01-25T13:00:03;1.23;;;0.45;;
79566;SDS011;69030;48.126;7.816;2024-01-25T13:02:29;1.17;;;0.75;;
79566;SDS011;69030;48.126;7.816;2024-01-25T13:04:55;1.33;;;0.32;;
79566;SDS011;69030;48.126;7.816;2024-01-25T13:07:20;1.95;;;1.35;;
79566;SDS011;69030;48.126;7.816;2024-01-25T13:09:47;1.10;;;0.43;;
79566;SDS011;69030;48.126;7.816;2024-01-25T13:12:13;1.83;;;0.93;;
79566;SDS011;69030;48.126;7.816;2024-01-25T13:14:38;0.60;;;0.32;;
79566;SDS011;69030;48.126;7.816;2024-01-25T13:17:04;0.90;;;0.32;;
79566;SDS011;69030;48.126;7.816;2024-01-25T13:19:32;1.27;;;1.17;;
79566;SDS011;69030;48.126;7.816;2024-01-25T13:21:58;2.28;;;0.80;;
79566;SDS011;69030;48.126;7.816;2024-01-25T13:24:24;1.77;;;0.73;;
79566;SDS011;69030;48.126;7.816;2024-01-25T13:26:50;1.45;;;0.32;;
79566;SDS011;69030;48.126;7.816;2024-01-25T13:29:15;1.17;;;0.38;;
79566;SDS011;69030;48.126;7.816;2024-01-25T13:31:41;1.48;;;0.75;;
79566;SDS011;69030;48.126;7.816;2024-01-25T13:34:06;1.02;;;0.45;;
79566;SDS011;69030;48.126;7.816;2024-01-25T13:36:32;1.60;;;0.75;;
79566;SDS011;69030;48.126;7.816;2024-01-25T13:38:57;1.15;;;0.30;;
79566;SDS011;69030;48.126;7.816;2024-01-25T13:41:23;0.93;;;0.40;;
79566;SDS011;69030;48.126;7.816;2024-01-25T13:43:48;2.25;;;0.57;;
79566;SDS011;69030;48.126;7.816;2024-01-25T13:46:14;2.08;;;0.88;;
79566;SDS011;69030;48.126;7.816;2024-01-25T13:48:39;1.20;;;0.63;;
79566;SDS011;69030;48.126;7.816;2024-01-25T13:51:05;2.75;;;1.02;;
79566;SDS011;69030;48.126;7.816;2024-01-25T13:53:30;2.53;;;1.15;;
79566;SDS011;69030;48.126;7.816;2024-01-25T13:55:56;2.15;;;1.00;;
79566;SDS011;69030;48.126;7.816;2024-01-25T13:58:23;3.08;;;1.13;;
79566;SDS011;69030;48.126;7.816;2024-01-25T14:00:48;2.10;;;0.95;;
79566;SDS011;69030;48.126;7.816;2024-01-25T14:03:14;1.38;;;0.63;;
79566;SDS011;69030;48.126;7.816;2024-01-25T14:05:41;1.83;;;0.95;;
79566;SDS011;69030;48.126;7.816;2024-01-25T14:08:07;6.35;;;2.00;;
79566;SDS011;69030;48.126;7.816;2024-01-25T14:10:32;1.95;;;1.15;;
79566;SDS011;69030;48.126;7.816;2024-01-25T14:12:59;2.13;;;1.55;;
79566;SDS011;69030;48.126;7.816;2024-01-25T14:15:25;5.85;;;3.58;;
79566;SDS011;69030;48.126;7.816;2024-01-25T14:17:52;5.20;;;3.45;;
79566;SDS011;69030;48.126;7.816;2024-01-25T14:20:17;3.08;;;1.90;;
79566;SDS011;69030;48.126;7.816;2024-01-25T14:22:43;5.80;;;2.53;;
79566;SDS011;69030;48.126;7.816;2024-01-25T14:25:09;3.35;;;2.53;;
79566;SDS011;69030;48.126;7.816;2024-01-25T14:27:34;3.72;;;1.25;;
79566;SDS011;69030;48.126;7.816;2024-01-25T14:30:00;3.58;;;2.50;;
79566;SDS011;69030;48.126;7.816;2024-01-25T14:32:26;4.82;;;3.22;;
79566;SDS011;69030;48.126;7.816;2024-01-25T14:34:51;7.65;;;3.83;;
79566;SDS011;69030;48.126;7.816;2024-01-25T14:37:17;13.15;;;11.45;;
79566;SDS011;69030;48.126;7.816;2024-01-25T14:39:43;4.43;;;2.88;;
79566;SDS011;69030;48.126;7.816;2024-01-25T14:42:11;2.83;;;1.35;;
79566;SDS011;69030;48.126;7.816;2024-01-25T14:44:38;3.22;;;1.77;;